createdAt,value
2019-03-03T00:01:36.668Z,99.90
2019-03-03T00:04:08.442Z,99.90
2019-03-03T00:06:40.065Z,99.90
2019-03-03T00:09:11.708Z,99.90
2019-03-03T00:11:44.489Z,99.90
2019-03-03T00:14:16.166Z,99.90
2019-03-03T00:16:47.861Z,99.90
2019-03-03T00:19:19.611Z,99.90
2019-03-03T00:21:52.687Z,99.90
2019-03-03T00:24:25.730Z,99.90
2019-03-03T00:26:57.255Z,99.90
2019-03-03T00:29:28.918Z,99.90
2019-03-03T00:32:00.488Z,99.90
2019-03-03T00:34:32.212Z,99.90
2019-03-03T00:37:30.448Z,99.90
2019-03-03T00:40:19.587Z,99.90
2019-03-03T00:43:03.637Z,99.90
2019-03-03T00:45:43.405Z,99.90
2019-03-03T00:48:36.746Z,99.90
2019-03-03T00:51:27.395Z,99.90
2019-03-03T00:54:16.409Z,99.90
2019-03-03T00:57:00.299Z,99.90
2019-03-03T00:59:51.424Z,99.90
2019-03-03T01:02:46.030Z,99.90
2019-03-03T01:05:27.287Z,99.90
2019-03-03T01:08:11.076Z,99.90
2019-03-03T01:11:04.280Z,99.90
2019-03-03T01:14:01.888Z,99.90
2019-03-03T01:16:51.637Z,99.90
2019-03-03T01:19:41.881Z,99.90
2019-03-03T01:22:23.389Z,99.90
2019-03-03T01:24:58.179Z,99.90
2019-03-03T01:27:30.072Z,99.90
2019-03-03T01:30:01.618Z,99.90
2019-03-03T01:32:33.322Z,99.90
2019-03-03T01:35:05.067Z,99.90
2019-03-03T01:37:37.846Z,99.90
2019-03-03T01:40:10.052Z,99.90
2019-03-03T01:42:41.629Z,99.90
2019-03-03T01:45:13.447Z,99.90
2019-03-03T01:47:45.128Z,99.90
2019-03-03T01:50:16.629Z,99.90
2019-03-03T01:52:48.378Z,99.90
2019-03-03T01:55:21.145Z,99.90
2019-03-03T01:57:52.918Z,99.90
2019-03-03T02:00:26.658Z,99.90
2019-03-03T02:02:58.619Z,99.90
2019-03-03T02:05:30.333Z,99.90
2019-03-03T02:08:03.135Z,99.90
2019-03-03T02:10:53.681Z,99.90
2019-03-03T02:13:25.401Z,99.90
2019-03-03T02:15:58.198Z,99.90
2019-03-03T02:18:30.010Z,99.90
2019-03-03T02:21:01.592Z,99.90
2019-03-03T02:23:33.911Z,99.90
2019-03-03T02:26:05.511Z,99.90
2019-03-03T02:28:47.950Z,99.90
2019-03-03T02:31:19.993Z,99.90
2019-03-03T02:33:51.614Z,99.90
2019-03-03T02:36:23.374Z,99.90
2019-03-03T02:38:55.133Z,99.90
2019-03-03T02:41:26.854Z,99.90
2019-03-03T02:43:58.613Z,99.90
2019-03-03T02:46:30.325Z,99.90
2019-03-03T02:49:01.991Z,99.90
2019-03-03T02:51:33.590Z,99.90
2019-03-03T02:54:05.174Z,99.90
2019-03-03T02:56:36.702Z,99.90
2019-03-03T02:59:08.314Z,99.90
2019-03-03T03:01:58.573Z,99.90
2019-03-03T03:04:31.219Z,99.90
2019-03-03T03:07:30.298Z,99.90
2019-03-03T03:10:10.503Z,99.90
2019-03-03T03:13:09.558Z,99.90
2019-03-03T03:15:58.386Z,99.90
2019-03-03T03:18:54.539Z,99.90
2019-03-03T03:21:53.996Z,99.90
2019-03-03T03:24:35.628Z,99.90
2019-03-03T03:27:28.940Z,99.90
2019-03-03T03:30:37.336Z,99.90
2019-03-03T03:33:17.021Z,99.90
2019-03-03T03:36:16.535Z,99.90
2019-03-03T03:39:06.208Z,99.90
2019-03-03T03:41:50.229Z,99.90
2019-03-03T03:44:43.967Z,99.90
2019-03-03T03:47:37.132Z,99.90
2019-03-03T03:50:27.312Z,99.90
2019-03-03T03:56:28.392Z,99.90
2019-03-03T03:59:14.648Z,99.90
2019-03-03T04:02:10.682Z,99.90
2019-03-03T04:04:53.057Z,99.90
2019-03-03T04:07:58.451Z,99.90
2019-03-03T04:10:57.626Z,99.90
2019-03-03T04:13:51.052Z,99.90
2019-03-03T04:16:48.306Z,99.90
2019-03-03T04:19:27.586Z,99.90
2019-03-03T04:22:36.311Z,99.90
2019-03-03T04:25:15.725Z,99.90
2019-03-03T04:28:04.875Z,99.90
2019-03-03T04:30:57.904Z,99.90
2019-03-03T04:33:39.237Z,99.90
2019-03-03T04:36:28.189Z,99.90
2019-03-03T04:39:27.800Z,99.90
2019-03-03T04:42:18.068Z,99.90
2019-03-03T04:44:59.562Z,99.90
2019-03-03T04:47:41.506Z,99.90
2019-03-03T04:50:20.878Z,99.90
2019-03-03T04:53:13.952Z,99.90
2019-03-03T04:55:55.598Z,99.90
2019-03-03T04:58:42.548Z,99.90
2019-03-03T05:01:22.448Z,99.90
2019-03-03T05:04:12.663Z,99.90
2019-03-03T05:07:01.653Z,99.90
2019-03-03T05:09:48.026Z,99.90
2019-03-03T05:12:40.619Z,99.90
2019-03-03T05:15:34.279Z,99.90
2019-03-03T05:18:11.850Z,99.90
2019-03-03T05:20:47.875Z,99.90
2019-03-03T05:23:19.495Z,99.90
2019-03-03T05:25:51.031Z,99.90
2019-03-03T05:28:22.756Z,99.90
2019-03-03T05:30:54.411Z,99.90
2019-03-03T05:33:26.242Z,99.90
2019-03-03T05:35:59.089Z,99.90
2019-03-03T05:38:31.059Z,99.90
2019-03-03T05:41:02.528Z,99.90
2019-03-03T05:43:34.231Z,99.90
2019-03-03T05:46:05.708Z,99.90
2019-03-03T05:48:38.339Z,99.90
2019-03-03T05:51:09.930Z,99.90
2019-03-03T05:53:41.554Z,99.90
2019-03-03T05:56:13.070Z,99.90
2019-03-03T05:58:44.657Z,99.90
2019-03-03T06:01:16.197Z,99.90
2019-03-03T06:03:48.134Z,99.90
2019-03-03T06:06:19.671Z,99.90
2019-03-03T06:08:51.460Z,99.90
2019-03-03T06:11:23.150Z,99.90
2019-03-03T06:13:54.859Z,99.90
2019-03-03T06:16:26.572Z,99.90
2019-03-03T06:18:58.189Z,99.90
2019-03-03T06:21:29.688Z,99.90
2019-03-03T06:24:01.596Z,99.90
2019-03-03T06:26:33.144Z,99.90
2019-03-03T06:29:05.063Z,99.90
2019-03-03T06:31:36.672Z,99.90
2019-03-03T06:34:08.455Z,99.90
2019-03-03T06:36:40.029Z,99.90
2019-03-03T06:39:11.760Z,99.90
2019-03-03T06:41:43.390Z,99.90
2019-03-03T06:44:15.739Z,99.90
2019-03-03T06:46:47.444Z,99.90
2019-03-03T06:49:19.341Z,99.90
2019-03-03T06:51:50.883Z,99.90
2019-03-03T06:54:23.064Z,99.90
2019-03-03T06:56:54.745Z,99.90
2019-03-03T06:59:26.847Z,99.90
2019-03-03T07:01:59.526Z,99.90
2019-03-03T07:04:31.173Z,99.90
2019-03-03T07:07:02.931Z,99.90
2019-03-03T07:09:35.011Z,99.90
2019-03-03T07:12:06.574Z,99.90
2019-03-03T07:14:38.402Z,99.90
2019-03-03T07:17:10.034Z,99.90
2019-03-03T07:19:41.830Z,99.90
2019-03-03T07:22:13.307Z,99.90
2019-03-03T07:24:44.860Z,99.90
2019-03-03T07:27:16.388Z,99.90
2019-03-03T07:29:48.067Z,99.90
2019-03-03T07:32:19.647Z,99.90
2019-03-03T07:34:51.586Z,99.90
2019-03-03T07:37:23.396Z,99.90
2019-03-03T07:39:55.474Z,99.90
2019-03-03T07:42:27.150Z,99.90
2019-03-03T07:44:58.863Z,99.90
2019-03-03T07:47:30.370Z,99.90
2019-03-03T07:50:02.133Z,99.90
2019-03-03T07:52:33.759Z,99.90
2019-03-03T07:55:05.813Z,99.90
2019-03-03T07:57:37.731Z,99.90
2019-03-03T08:00:10.788Z,99.90
2019-03-03T08:02:42.560Z,99.90
2019-03-03T08:05:14.539Z,99.90
2019-03-03T08:07:46.298Z,99.90
2019-03-03T08:10:17.276Z,99.90
2019-03-03T08:12:48.815Z,99.90
2019-03-03T08:15:20.539Z,99.90
2019-03-03T08:17:52.384Z,99.90
2019-03-03T08:20:24.720Z,99.90
2019-03-03T08:22:56.302Z,99.90
2019-03-03T08:25:34.735Z,99.90
2019-03-03T08:28:09.796Z,99.90
2019-03-03T08:30:42.326Z,99.90
2019-03-03T08:33:16.123Z,99.90
2019-03-03T08:35:50.078Z,99.90
2019-03-03T08:38:24.722Z,99.90
2019-03-03T08:40:57.195Z,99.90
2019-03-03T08:43:53.483Z,99.90
2019-03-03T08:46:36.271Z,99.90
2019-03-03T08:49:22.003Z,99.90
2019-03-03T08:52:12.395Z,99.90
2019-03-03T08:54:52.398Z,99.90
2019-03-03T08:57:47.375Z,99.90
2019-03-03T09:00:41.145Z,99.90
2019-03-03T09:03:40.094Z,99.30
2019-03-03T09:06:21.039Z,97.40
2019-03-03T09:09:19.477Z,96.20
2019-03-03T09:11:57.661Z,99.60
2019-03-03T09:14:50.669Z,99.80
2019-03-03T09:17:39.807Z,98.60
2019-03-03T09:20:17.285Z,98.80
2019-03-03T09:22:55.681Z,99.90
2019-03-03T09:25:45.006Z,99.90
2019-03-03T09:28:35.280Z,99.90
2019-03-03T09:31:31.591Z,99.90
2019-03-03T09:34:28.638Z,99.90
2019-03-03T09:37:22.379Z,99.90
2019-03-03T09:40:11.442Z,99.90
2019-03-03T09:43:01.933Z,99.90
2019-03-03T09:46:01.769Z,99.90
2019-03-03T09:48:50.624Z,99.90
2019-03-03T09:51:50.138Z,99.90
2019-03-03T09:54:36.267Z,99.90
2019-03-03T09:57:29.266Z,99.90
2019-03-03T10:00:19.492Z,99.90
2019-03-03T10:03:15.771Z,99.90
2019-03-03T10:06:05.067Z,99.90
2019-03-03T10:09:11.539Z,99.90
2019-03-03T10:12:20.057Z,99.90
2019-03-03T10:15:09.473Z,99.90
2019-03-03T10:17:50.429Z,99.90
2019-03-03T10:20:40.609Z,99.90
2019-03-03T10:23:43.535Z,99.90
2019-03-03T10:26:35.107Z,99.90
2019-03-03T10:29:12.444Z,99.90
2019-03-03T10:32:05.762Z,99.90
2019-03-03T10:34:51.912Z,99.90
2019-03-03T10:37:45.143Z,99.90
2019-03-03T10:40:41.528Z,99.90
2019-03-03T10:43:47.146Z,99.90
2019-03-03T10:46:37.456Z,99.90
2019-03-03T10:49:27.562Z,99.90
2019-03-03T10:52:16.892Z,99.90
2019-03-03T10:55:07.264Z,99.70
2019-03-03T10:57:44.965Z,98.00
2019-03-03T11:00:41.162Z,99.90
2019-03-03T11:03:30.574Z,99.40
2019-03-03T11:06:34.190Z,97.50
2019-03-03T11:09:24.719Z,97.60
2019-03-03T11:12:24.482Z,95.80
2019-03-03T11:15:06.758Z,95.60
2019-03-03T11:18:15.255Z,95.80
2019-03-03T11:21:04.177Z,97.10
2019-03-03T11:24:02.438Z,94.40
2019-03-03T11:26:50.955Z,95.90
2019-03-03T11:29:29.179Z,99.90
2019-03-03T11:32:20.274Z,96.40
2019-03-03T11:35:10.100Z,94.70
2019-03-03T11:38:00.792Z,94.70
2019-03-03T11:41:10.914Z,95.30
2019-03-03T11:44:03.978Z,96.20
2019-03-03T11:46:54.283Z,94.90
2019-03-03T11:49:50.556Z,93.20
2019-03-03T11:52:40.893Z,95.00
2019-03-03T11:55:22.504Z,92.40
2019-03-03T11:58:28.193Z,92.80
2019-03-03T12:01:25.280Z,91.80
2019-03-03T12:04:14.541Z,90.90
2019-03-03T12:06:52.422Z,91.90
2019-03-03T12:09:39.330Z,92.10
2019-03-03T12:12:32.923Z,90.90
2019-03-03T12:15:22.297Z,90.70
2019-03-03T12:18:07.395Z,88.70
2019-03-03T12:21:00.836Z,91.30
2019-03-03T12:23:54.057Z,89.70
2019-03-03T12:26:32.248Z,91.10
2019-03-03T12:29:30.831Z,87.40
2019-03-03T12:32:20.478Z,88.40
2019-03-03T12:35:22.529Z,87.00
2019-03-03T12:38:03.890Z,86.20
2019-03-03T12:40:46.585Z,86.20
2019-03-03T12:43:30.580Z,90.20
2019-03-03T12:46:19.810Z,89.10
2019-03-03T12:49:17.824Z,87.10
2019-03-03T12:52:10.916Z,86.60
2019-03-03T12:55:19.733Z,87.50
2019-03-03T12:58:13.048Z,91.30
2019-03-03T13:01:09.641Z,87.60
2019-03-03T13:03:53.682Z,87.70
2019-03-03T13:06:42.450Z,88.10
2019-03-03T13:09:31.446Z,89.20
2019-03-03T13:12:20.485Z,90.30
2019-03-03T13:15:13.655Z,87.00
2019-03-03T13:17:57.522Z,88.00
2019-03-03T13:21:00.052Z,84.40
2019-03-03T13:24:02.915Z,86.50
2019-03-03T13:26:59.003Z,87.40
2019-03-03T13:29:42.994Z,88.90
2019-03-03T13:32:48.754Z,90.00
2019-03-03T13:35:28.927Z,87.20
2019-03-03T13:38:29.223Z,88.80
2019-03-03T13:41:16.748Z,89.30
2019-03-03T13:43:48.509Z,90.30
2019-03-03T13:46:20.260Z,90.50
2019-03-03T13:48:51.815Z,90.80
2019-03-03T13:51:23.470Z,90.40
2019-03-03T13:53:55.435Z,90.80
2019-03-03T13:56:28.176Z,90.10
2019-03-03T13:58:59.886Z,90.80
2019-03-03T14:01:32.680Z,90.60
2019-03-03T14:04:04.340Z,91.30
2019-03-03T14:06:36.346Z,90.90
2019-03-03T14:09:09.658Z,91.90
2019-03-03T14:11:41.568Z,92.80
2019-03-03T14:14:13.163Z,92.20
2019-03-03T14:16:44.845Z,92.30
2019-03-03T14:19:16.512Z,91.30
2019-03-03T14:21:48.211Z,92.50
2019-03-03T14:24:19.642Z,90.80
2019-03-03T14:26:51.319Z,91.40
2019-03-03T14:29:22.798Z,92.10
2019-03-03T14:31:54.514Z,92.20
2019-03-03T14:34:26.139Z,92.00
2019-03-03T14:36:57.840Z,90.80
2019-03-03T14:39:29.549Z,91.20
2019-03-03T14:42:02.323Z,90.70
2019-03-03T14:44:33.952Z,91.80
2019-03-03T14:47:16.206Z,90.10
2019-03-03T14:49:49.098Z,90.30
2019-03-03T14:52:20.691Z,91.30
2019-03-03T14:54:52.754Z,92.80
2019-03-03T14:57:24.451Z,93.70
2019-03-03T14:59:56.077Z,94.00
2019-03-03T15:02:27.946Z,95.10
2019-03-03T15:04:59.606Z,95.20
2019-03-03T15:07:31.346Z,95.70
2019-03-03T15:10:21.811Z,95.50
2019-03-03T15:12:53.656Z,96.20
2019-03-03T15:15:26.278Z,97.00
2019-03-03T15:17:59.967Z,97.90
2019-03-03T15:20:31.888Z,98.60
2019-03-03T15:23:03.705Z,99.90
2019-03-03T15:25:35.313Z,99.90
2019-03-03T15:28:07.103Z,99.90
2019-03-03T15:30:38.854Z,99.90
2019-03-03T15:33:10.655Z,99.90
2019-03-03T15:35:42.408Z,99.90
2019-03-03T15:38:14.426Z,99.90
2019-03-03T15:40:46.079Z,99.90
2019-03-03T15:43:17.682Z,99.90
2019-03-03T15:45:49.287Z,99.90
2019-03-03T15:48:21.124Z,99.90
2019-03-03T15:50:53.664Z,99.90
2019-03-03T15:53:25.563Z,99.90
2019-03-03T15:55:57.555Z,99.90
2019-03-03T15:58:29.367Z,99.90
2019-03-03T16:01:01.170Z,99.90
2019-03-03T16:03:33.093Z,99.90
2019-03-03T16:06:05.904Z,99.90
2019-03-03T16:08:56.655Z,99.90
2019-03-03T16:11:28.327Z,99.90
2019-03-03T16:14:00.087Z,99.90
2019-03-03T16:16:31.829Z,99.90
2019-03-03T16:19:05.647Z,99.90
2019-03-03T16:21:48.254Z,99.90
2019-03-03T16:24:20.431Z,99.90
2019-03-03T16:26:52.301Z,99.90
2019-03-03T16:29:23.922Z,99.90
2019-03-03T16:31:56.942Z,99.90
2019-03-03T16:34:28.817Z,99.90
2019-03-03T16:37:00.928Z,99.90
2019-03-03T16:39:32.809Z,99.90
2019-03-03T16:42:04.547Z,99.90
2019-03-03T16:44:36.328Z,99.90
2019-03-03T16:47:08.043Z,99.90
2019-03-03T16:49:39.762Z,99.90
2019-03-03T16:52:13.539Z,99.90
2019-03-03T16:54:45.353Z,99.90
2019-03-03T16:57:17.174Z,99.90
2019-03-03T16:59:48.950Z,99.90
2019-03-03T17:02:20.673Z,99.90
2019-03-03T17:04:52.304Z,99.90
2019-03-03T17:07:23.938Z,99.90
2019-03-03T17:09:55.811Z,99.90
2019-03-03T17:12:27.490Z,99.90
2019-03-03T17:14:59.246Z,99.90
2019-03-03T17:17:30.945Z,99.90
2019-03-03T17:20:02.731Z,99.90
2019-03-03T17:22:34.886Z,99.90
2019-03-03T17:25:09.193Z,99.90
2019-03-03T17:27:41.024Z,99.90
2019-03-03T17:30:15.336Z,99.90
2019-03-03T17:32:48.396Z,99.90
2019-03-03T17:35:20.660Z,99.90
2019-03-03T17:37:52.543Z,99.90
2019-03-03T17:40:25.651Z,99.90
2019-03-03T17:42:57.271Z,99.90
2019-03-03T17:45:28.918Z,99.90
2019-03-03T17:48:00.889Z,99.90
2019-03-03T17:50:33.299Z,99.90
2019-03-03T17:53:06.406Z,99.90
2019-03-03T17:55:38.086Z,99.90
2019-03-03T17:58:10.765Z,99.90
2019-03-03T18:00:45.312Z,99.90
2019-03-03T18:06:39.011Z,99.90
2019-03-03T18:09:10.052Z,99.90
2019-03-03T18:11:42.161Z,99.90
2019-03-03T18:14:14.117Z,99.90
2019-03-03T18:16:45.735Z,99.90
2019-03-03T18:19:17.446Z,99.90
2019-03-03T18:21:49.145Z,99.90
2019-03-03T18:24:20.909Z,99.90
2019-03-03T18:26:52.416Z,99.90
2019-03-03T18:29:24.093Z,99.90
2019-03-03T18:31:56.134Z,99.90
2019-03-03T18:34:28.107Z,99.90
2019-03-03T18:36:59.685Z,99.90
2019-03-03T18:39:31.527Z,99.90
2019-03-03T18:42:14.306Z,99.90
2019-03-03T18:44:46.024Z,99.90
2019-03-03T18:47:17.594Z,99.90
2019-03-03T18:49:49.245Z,99.90
2019-03-03T18:52:20.894Z,99.90
2019-03-03T18:54:52.745Z,99.90
2019-03-03T18:57:24.281Z,99.90
2019-03-03T18:59:56.818Z,99.90
2019-03-03T19:02:28.592Z,99.90
2019-03-03T19:05:00.346Z,99.90
2019-03-03T19:07:32.582Z,99.90
2019-03-03T19:10:04.559Z,99.90
2019-03-03T19:12:37.729Z,99.90
2019-03-03T19:15:11.335Z,99.90
2019-03-03T19:17:42.982Z,99.90
2019-03-03T19:20:15.975Z,99.90
2019-03-03T19:22:47.676Z,99.90
2019-03-03T19:25:19.445Z,99.90
2019-03-03T19:27:51.294Z,99.90
2019-03-03T19:30:24.572Z,99.90
2019-03-03T19:33:01.031Z,99.90
2019-03-03T19:35:32.628Z,99.90
2019-03-03T19:38:04.407Z,99.90
2019-03-03T19:40:36.247Z,99.90
2019-03-03T19:43:08.078Z,99.90
2019-03-03T19:45:40.033Z,99.90
2019-03-03T19:48:12.853Z,99.90
2019-03-03T19:50:44.813Z,99.90
2019-03-03T19:53:16.887Z,99.90
2019-03-03T19:55:49.082Z,99.90
2019-03-03T19:58:21.362Z,99.90
2019-03-03T20:00:54.660Z,99.90
2019-03-03T20:03:26.574Z,99.90
2019-03-03T20:05:58.265Z,99.90
2019-03-03T20:08:30.242Z,99.90
2019-03-03T20:11:02.388Z,99.90
2019-03-03T20:13:35.013Z,99.90
2019-03-03T20:16:06.991Z,99.90
2019-03-03T20:18:38.668Z,99.90
2019-03-03T20:21:11.574Z,99.90
2019-03-03T20:23:43.288Z,99.90
2019-03-03T20:26:15.007Z,99.90
2019-03-03T20:28:46.865Z,99.90
2019-03-03T20:31:19.818Z,99.90
2019-03-03T20:33:51.519Z,99.90
2019-03-03T20:36:23.636Z,99.90
2019-03-03T20:38:56.443Z,99.90
2019-03-03T20:41:28.041Z,99.90
2019-03-03T20:43:59.725Z,99.90
2019-03-03T20:46:31.515Z,99.90
2019-03-03T20:49:03.320Z,99.90
2019-03-03T20:51:35.249Z,99.90
2019-03-03T20:54:06.924Z,99.90
2019-03-03T20:56:38.570Z,99.90
2019-03-03T20:59:10.245Z,99.90
2019-03-03T21:01:41.937Z,99.90
2019-03-03T21:04:13.672Z,99.90
2019-03-03T21:06:45.530Z,99.90
2019-03-03T21:09:18.143Z,99.90
2019-03-03T21:11:49.981Z,99.90
2019-03-03T21:14:22.749Z,99.90
2019-03-03T21:16:54.357Z,99.90
2019-03-03T21:19:25.941Z,99.90
2019-03-03T21:21:58.712Z,99.90
2019-03-03T21:24:30.482Z,99.90
2019-03-03T21:27:02.241Z,99.90
2019-03-03T21:29:35.472Z,99.90
2019-03-03T21:32:07.286Z,99.90
2019-03-03T21:34:39.150Z,99.90
2019-03-03T21:37:11.567Z,99.90
2019-03-03T21:39:44.505Z,99.90
2019-03-03T21:42:16.326Z,99.90
2019-03-03T21:44:47.995Z,99.90
2019-03-03T21:47:20.790Z,99.90
2019-03-03T21:49:52.451Z,99.90
2019-03-03T21:52:25.122Z,99.90
2019-03-03T21:54:56.874Z,99.90
2019-03-03T21:57:28.586Z,99.90
2019-03-03T22:00:00.377Z,99.90
2019-03-03T22:02:33.618Z,99.90
2019-03-03T22:05:05.296Z,99.90
2019-03-03T22:07:37.182Z,99.90
2019-03-03T22:10:09.093Z,99.90
2019-03-03T22:12:40.773Z,99.90
2019-03-03T22:15:12.446Z,99.90
2019-03-03T22:17:44.411Z,99.90
2019-03-03T22:20:16.001Z,99.90
2019-03-03T22:22:48.017Z,99.90
2019-03-03T22:25:19.711Z,99.90
2019-03-03T22:27:51.553Z,99.90
2019-03-03T22:30:23.054Z,99.90
2019-03-03T22:32:54.730Z,99.90
2019-03-03T22:35:26.435Z,99.90
2019-03-03T22:37:58.023Z,99.90
2019-03-03T22:40:48.535Z,99.90
2019-03-03T22:43:20.150Z,99.90
2019-03-03T22:45:51.867Z,99.90
2019-03-03T22:48:24.036Z,99.90
2019-03-03T22:50:55.752Z,99.90
2019-03-03T22:53:28.010Z,99.90
2019-03-03T22:55:59.847Z,99.90
2019-03-03T22:58:33.668Z,99.90
2019-03-03T23:01:19.338Z,99.90
2019-03-03T23:04:13.418Z,99.90
2019-03-03T23:07:14.255Z,99.90
2019-03-03T23:10:17.985Z,99.90
2019-03-03T23:13:26.877Z,99.90
2019-03-03T23:16:22.065Z,99.90
2019-03-03T23:19:15.707Z,99.90
2019-03-03T23:22:37.091Z,99.90
2019-03-03T23:25:53.366Z,99.90
2019-03-03T23:28:26.558Z,99.90
2019-03-03T23:30:59.591Z,99.90
2019-03-03T23:33:33.776Z,99.90
2019-03-03T23:36:05.762Z,99.90
2019-03-03T23:38:37.248Z,99.90
2019-03-03T23:41:09.053Z,99.90
2019-03-03T23:43:40.928Z,99.90
2019-03-03T23:46:12.603Z,99.90
2019-03-03T23:48:44.243Z,99.90
2019-03-03T23:51:16.083Z,99.90
2019-03-03T23:53:47.621Z,99.90
2019-03-03T23:56:19.289Z,99.90
2019-03-03T23:58:51.026Z,99.90
